Time;durP1;ratioP1;P1;durP2;ratioP2;P2;SDS_P1;SDS_P2;PMS_P1;PMS_P2;Temp;Humidity;BMP_temperature;BMP_pressure;BME280_temperature;BME280_humidity;BME280_pressure;Samples;Min_cycle;Max_cycle;Signal;HPM_P1;HPM_P2
2022/10/11 00:00:48;;;;;;;11.55;3.08;;;11.80;99.90;;;;;;5030494;28;20042;-79
2022/10/11 00:03:15;;;;;;;17.45;3.95;;;11.80;99.90;;;;;;5030458;28;20049;-79
2022/10/11 00:05:43;;;;;;;10.95;2.97;;;11.80;99.90;;;;;;5030285;28;20053;-79
2022/10/11 00:08:10;;;;;;;16.33;2.83;;;11.70;99.90;;;;;;5030353;28;20577;-79
2022/10/11 00:10:37;;;;;;;12.57;3.10;;;11.70;99.90;;;;;;5029808;28;20041;-78
2022/10/11 00:13:04;;;;;;;10.18;3.00;;;11.70;99.90;;;;;;5030275;28;20049;-79
2022/10/11 00:15:33;;;;;;;12.02;2.88;;;11.70;99.90;;;;;;5029804;28;20509;-79
2022/10/11 00:18:00;;;;;;;10.90;3.33;;;11.70;99.90;;;;;;5030072;28;20061;-79
2022/10/11 00:20:27;;;;;;;18.13;3.55;;;11.70;99.90;;;;;;5028961;28;20386;-78
2022/10/11 00:22:53;;;;;;;21.48;3.38;;;11.70;99.90;;;;;;5029647;28;20065;-78
2022/10/11 00:25:21;;;;;;;14.23;3.70;;;11.60;99.90;;;;;;5029978;28;20064;-78
2022/10/11 00:27:48;;;;;;;15.60;3.63;;;11.60;99.90;;;;;;5030104;28;20045;-79
2022/10/11 00:30:15;;;;;;;10.63;3.30;;;11.60;99.90;;;;;;5030126;28;20041;-79
2022/10/11 00:32:43;;;;;;;12.00;3.33;;;11.60;99.90;;;;;;5029954;28;20050;-79
2022/10/11 00:35:10;;;;;;;10.10;3.42;;;11.60;99.90;;;;;;5029595;28;20056;-79
2022/10/11 00:37:38;;;;;;;12.05;3.42;;;11.60;99.90;;;;;;5030021;28;20049;-78
2022/10/11 00:40:07;;;;;;;13.90;3.70;;;11.60;99.90;;;;;;5043573;22;20053;-80
2022/10/11 00:42:34;;;;;;;15.40;3.70;;;11.50;99.90;;;;;;5028907;28;20041;-80
2022/10/11 00:45:38;;;;;;;8.75;3.08;;;11.50;99.90;;;;;;5025128;28;20125;-80
2022/10/11 00:48:11;;;;;;;13.90;3.53;;;11.50;99.90;;;;;;5022831;28;20056;-80
2022/10/11 00:50:38;;;;;;;11.45;3.15;;;11.40;99.90;;;;;;5020784;28;20046;-80
2022/10/11 00:53:08;;;;;;;8.27;2.90;;;11.40;99.90;;;;;;5014409;28;20056;-80
2022/10/11 00:55:40;;;;;;;11.95;3.40;;;11.40;99.90;;;;;;5029312;28;20049;-80
2022/10/11 00:58:07;;;;;;;12.48;3.13;;;11.40;99.90;;;;;;5024825;28;20042;-80
2022/10/11 01:00:34;;;;;;;10.73;3.55;;;11.40;99.90;;;;;;5009695;28;20056;-80
2022/10/11 01:03:01;;;;;;;10.30;3.28;;;11.30;99.90;;;;;;5012860;28;20405;-80
2022/10/11 01:05:30;;;;;;;14.15;3.55;;;11.30;99.90;;;;;;5029222;28;20048;-79
2022/10/11 01:07:57;;;;;;;12.68;3.28;;;11.30;99.90;;;;;;5022550;28;20050;-80
2022/10/11 01:10:24;;;;;;;11.15;3.55;;;11.30;99.90;;;;;;5009667;28;20041;-80
2022/10/11 01:13:01;;;;;;;11.85;3.53;;;11.20;99.90;;;;;;5011605;28;20510;-80
2022/10/11 01:15:34;;;;;;;8.90;2.85;;;11.20;99.90;;;;;;4989798;28;20050;-80
2022/10/11 01:18:05;;;;;;;10.68;3.13;;;11.20;99.90;;;;;;5025209;28;20047;-80
2022/10/11 01:20:41;;;;;;;14.00;3.75;;;11.10;99.90;;;;;;5018948;28;20045;-80
2022/10/11 01:23:59;;;;;;;12.50;3.25;;;11.10;99.90;;;;;;5017867;28;20042;-80
2022/10/11 01:27:04;;;;;;;13.57;4.03;;;11.10;99.90;;;;;;4959247;28;20085;-80
2022/10/11 01:29:40;;;;;;;12.52;3.47;;;11.10;99.90;;;;;;4979502;28;20404;-80
2022/10/11 01:32:14;;;;;;;16.60;3.65;;;11.00;99.90;;;;;;4995237;28;20034;-80
2022/10/11 01:34:46;;;;;;;11.18;3.40;;;11.00;99.90;;;;;;5028945;28;20125;-79
2022/10/11 01:37:16;;;;;;;12.35;4.00;;;11.00;99.90;;;;;;4989750;28;20492;-80
2022/10/11 01:39:47;;;;;;;12.90;4.13;;;11.00;99.90;;;;;;4988226;28;20062;-80
2022/10/11 01:42:14;;;;;;;13.52;3.92;;;11.00;99.90;;;;;;5009530;28;20048;-80
2022/10/11 01:44:42;;;;;;;14.27;3.85;;;11.00;99.90;;;;;;5009023;28;20050;-80
2022/10/11 01:47:11;;;;;;;13.18;4.40;;;11.00;99.90;;;;;;5027096;28;20084;-80
2022/10/11 01:49:38;;;;;;;15.00;3.80;;;11.00;99.90;;;;;;5028886;28;20041;-80
2022/10/11 01:52:06;;;;;;;12.40;4.10;;;11.00;99.90;;;;;;5010888;28;20121;-80
2022/10/11 01:54:41;;;;;;;14.70;3.80;;;10.90;99.90;;;;;;5011787;28;20065;-80
2022/10/11 01:57:27;;;;;;;13.93;4.15;;;10.80;99.90;;;;;;5028707;28;20042;-80
2022/10/11 02:00:02;;;;;;;13.85;4.38;;;10.90;99.90;;;;;;5013080;28;20357;-79
2022/10/11 02:02:48;;;;;;;19.95;4.97;;;10.90;99.90;;;;;;4993421;28;20050;-80
2022/10/11 02:05:27;;;;;;;14.63;4.63;;;10.80;99.90;;;;;;4996119;28;20050;-80
2022/10/11 02:08:00;;;;;;;11.30;3.70;;;10.80;99.90;;;;;;5024537;28;20045;-79
2022/10/11 02:10:32;;;;;;;20.90;4.68;;;10.80;99.90;;;;;;5015044;28;20054;-80
2022/10/11 02:13:02;;;;;;;17.98;4.20;;;10.80;99.90;;;;;;5032461;28;20046;-80
2022/10/11 02:15:31;;;;;;;13.68;4.53;;;10.70;99.90;;;;;;5030068;28;20509;-80
2022/10/11 02:18:01;;;;;;;9.52;3.47;;;10.70;99.90;;;;;;5012930;28;20041;-80
2022/10/11 02:20:30;;;;;;;18.00;4.25;;;10.70;99.90;;;;;;5027175;28;20046;-80
2022/10/11 02:23:01;;;;;;;15.10;4.95;;;10.60;99.90;;;;;;5032773;28;20045;-80
2022/10/11 02:25:29;;;;;;;13.00;4.45;;;10.60;99.90;;;;;;5018318;28;20050;-80
2022/10/11 02:27:59;;;;;;;17.48;4.40;;;10.60;99.90;;;;;;5012721;28;20490;-80
2022/10/11 02:30:26;;;;;;;13.23;4.43;;;10.70;99.90;;;;;;5024729;28;20386;-80
2022/10/11 02:32:54;;;;;;;11.13;4.07;;;10.60;99.90;;;;;;5032256;28;20498;-79
2022/10/11 02:35:24;;;;;;;14.13;4.25;;;10.50;99.90;;;;;;5019975;28;20045;-80
2022/10/11 02:37:53;;;;;;;16.95;4.70;;;10.50;99.90;;;;;;5012634;28;20057;-80
2022/10/11 02:40:23;;;;;;;14.40;4.45;;;10.50;99.90;;;;;;5022947;28;20046;-80
2022/10/11 02:42:57;;;;;;;18.83;4.60;;;10.50;99.90;;;;;;5031494;28;20045;-80
2022/10/11 02:45:27;;;;;;;12.13;4.40;;;10.50;99.90;;;;;;5010709;28;20046;-80
2022/10/11 02:47:54;;;;;;;12.63;4.35;;;10.50;99.90;;;;;;5012239;28;20038;-80
2022/10/11 02:50:23;;;;;;;12.52;4.45;;;10.40;99.90;;;;;;5031590;28;20049;-80
2022/10/11 02:52:50;;;;;;;11.57;4.28;;;10.40;99.90;;;;;;5030089;28;20045;-80
2022/10/11 02:55:17;;;;;;;17.42;5.15;;;10.40;99.90;;;;;;5028282;28;20052;-80
2022/10/11 02:57:44;;;;;;;15.98;4.90;;;10.40;99.90;;;;;;5012307;28;20038;-80
2022/10/11 03:00:13;;;;;;;17.80;4.75;;;10.40;99.90;;;;;;5031903;28;20103;-80
2022/10/11 03:02:39;;;;;;;14.80;5.75;;;10.40;99.90;;;;;;5031896;28;20045;-80
2022/10/11 03:05:07;;;;;;;14.05;4.82;;;10.30;99.90;;;;;;5009644;28;20540;-80
2022/10/11 03:07:35;;;;;;;12.63;5.57;;;10.30;99.90;;;;;;5018058;28;20041;-79
2022/10/11 03:10:02;;;;;;;15.20;5.90;;;10.50;99.90;;;;;;5031654;28;20049;-80
2022/10/11 03:12:29;;;;;;;14.27;5.45;;;10.40;99.90;;;;;;5026012;28;20048;-80
2022/10/11 03:14:56;;;;;;;16.30;6.30;;;10.30;99.90;;;;;;5010868;28;20050;-80
2022/10/11 03:17:23;;;;;;;16.55;5.47;;;10.30;99.90;;;;;;5015006;28;20045;-80
2022/10/11 03:19:50;;;;;;;12.30;5.20;;;10.30;99.90;;;;;;5013711;28;20053;-80
2022/10/11 03:22:17;;;;;;;15.48;5.68;;;10.30;99.90;;;;;;5028861;28;20099;-80
2022/10/11 03:24:45;;;;;;;13.82;4.82;;;10.20;99.90;;;;;;5011457;28;20034;-79
2022/10/11 03:27:12;;;;;;;12.90;5.00;;;10.20;99.90;;;;;;5012236;28;20046;-79
2022/10/11 03:29:39;;;;;;;14.23;4.70;;;10.20;99.90;;;;;;5031274;28;20100;-80
2022/10/11 03:32:06;;;;;;;11.90;4.53;;;10.20;99.90;;;;;;5021531;28;20042;-79
2022/10/11 03:34:33;;;;;;;14.20;4.05;;;10.20;99.90;;;;;;5011274;28;20052;-79
2022/10/11 03:37:00;;;;;;;22.90;4.57;;;10.10;99.90;;;;;;5019335;28;20375;-79
2022/10/11 03:39:27;;;;;;;13.68;4.93;;;10.10;99.90;;;;;;5031077;28;20064;-80
2022/10/11 03:41:55;;;;;;;12.68;5.20;;;10.10;99.90;;;;;;5023007;28;20064;-79
2022/10/11 03:44:22;;;;;;;13.95;4.35;;;10.10;99.90;;;;;;5023079;28;20053;-80
2022/10/11 03:46:49;;;;;;;12.35;5.05;;;10.10;99.90;;;;;;5025408;28;20046;-80
2022/10/11 03:49:15;;;;;;;11.48;3.80;;;10.00;99.90;;;;;;5010962;28;20056;-80
2022/10/11 03:51:42;;;;;;;12.43;3.67;;;10.00;99.90;;;;;;5014555;28;20037;-80
2022/10/11 03:54:09;;;;;;;12.90;3.40;;;10.00;99.90;;;;;;5030778;28;20049;-79
2022/10/11 03:56:36;;;;;;;11.70;3.88;;;10.00;99.90;;;;;;5023299;28;20037;-80
2022/10/11 03:59:04;;;;;;;12.88;4.03;;;10.00;99.90;;;;;;5010983;28;20145;-80
2022/10/11 04:01:36;;;;;;;11.48;3.28;;;10.00;99.90;;;;;;5010863;28;20042;-80
2022/10/11 04:04:03;;;;;;;13.38;4.22;;;10.00;99.90;;;;;;5010929;28;20490;-80
2022/10/11 04:06:30;;;;;;;12.40;4.18;;;10.00;99.90;;;;;;5010816;28;20038;-80
2022/10/11 04:08:57;;;;;;;10.57;3.55;;;10.00;99.90;;;;;;5010926;28;20091;-79
2022/10/11 04:11:24;;;;;;;9.05;3.58;;;9.90;99.90;;;;;;5018695;28;20052;-79
2022/10/11 04:13:51;;;;;;;14.18;3.83;;;9.90;99.90;;;;;;5030515;28;20049;-79
2022/10/11 04:16:19;;;;;;;15.65;4.78;;;9.90;99.90;;;;;;5023123;28;20510;-80
2022/10/11 04:18:46;;;;;;;10.18;3.40;;;9.80;99.90;;;;;;5019981;28;20049;-80
2022/10/11 04:21:12;;;;;;;11.80;3.65;;;9.80;99.90;;;;;;5024655;28;20060;-79
2022/10/11 04:23:39;;;;;;;11.98;3.95;;;9.80;99.90;;;;;;5010421;28;20053;-80
2022/10/11 04:26:07;;;;;;;14.27;3.85;;;9.80;99.90;;;;;;5018079;28;20149;-80
2022/10/11 04:28:34;;;;;;;10.30;3.50;;;9.80;99.90;;;;;;5030059;28;20050;-80
2022/10/11 04:31:03;;;;;;;12.38;3.35;;;9.80;99.90;;;;;;5018237;28;20056;-80
2022/10/11 04:33:31;;;;;;;8.48;3.38;;;9.70;99.90;;;;;;5010325;28;20045;-80
2022/10/11 04:35:58;;;;;;;13.50;3.25;;;9.70;99.90;;;;;;5020140;28;20049;-80
2022/10/11 04:38:25;;;;;;;12.65;3.45;;;9.70;99.90;;;;;;5027558;28;20506;-80
2022/10/11 04:40:51;;;;;;;10.10;3.00;;;9.70;99.90;;;;;;5010123;28;20046;-79
2022/10/11 04:43:18;;;;;;;8.57;3.03;;;9.60;99.90;;;;;;5024392;28;20049;-80
2022/10/11 04:45:45;;;;;;;11.20;3.40;;;9.60;99.90;;;;;;5029754;28;20046;-80
2022/10/11 04:48:13;;;;;;;13.18;4.07;;;9.60;99.90;;;;;;5016958;28;20454;-80
2022/10/11 04:50:41;;;;;;;14.30;4.25;;;9.60;99.90;;;;;;5010008;28;20053;-80
2022/10/11 04:53:08;;;;;;;8.88;3.25;;;9.60;99.90;;;;;;5025051;28;20531;-79
2022/10/11 04:55:35;;;;;;;8.57;3.17;;;9.60;99.90;;;;;;5028957;28;20051;-79
2022/10/11 04:58:02;;;;;;;10.77;3.03;;;9.50;99.90;;;;;;5014157;28;20045;-83
2022/10/11 05:00:29;;;;;;;7.30;2.65;;;9.60;99.90;;;;;;5009869;28;20079;-82
2022/10/11 05:02:56;;;;;;;8.80;3.00;;;9.50;99.90;;;;;;5023217;28;20041;-83
2022/10/11 05:05:23;;;;;;;7.35;3.00;;;9.40;99.90;;;;;;5011360;28;20104;-82
2022/10/11 05:07:51;;;;;;;9.35;3.00;;;9.50;99.90;;;;;;5021663;28;20125;-82
2022/10/11 05:10:18;;;;;;;12.40;3.30;;;9.40;99.90;;;;;;4997956;28;20411;-80
2022/10/11 05:12:45;;;;;;;10.55;3.10;;;9.50;99.90;;;;;;5005453;28;20045;-80
2022/10/11 05:15:12;;;;;;;8.52;3.20;;;9.50;99.90;;;;;;5009412;28;20054;-80
2022/10/11 05:17:39;;;;;;;9.82;3.33;;;9.50;99.90;;;;;;5027261;28;20053;-80
2022/10/11 05:20:07;;;;;;;9.75;3.25;;;9.50;99.90;;;;;;5029342;28;20490;-79
2022/10/11 05:22:33;;;;;;;12.88;3.63;;;9.40;99.90;;;;;;5011101;28;20053;-76
2022/10/11 05:25:02;;;;;;;10.02;3.40;;;9.40;99.90;;;;;;5009406;28;20050;-78
2022/10/11 05:27:29;;;;;;;9.07;3.28;;;9.40;99.90;;;;;;5024606;28;20046;-76
2022/10/11 05:29:56;;;;;;;11.65;3.55;;;9.40;99.90;;;;;;5009002;28;20038;-75
2022/10/11 05:32:23;;;;;;;10.05;3.70;;;9.30;99.90;;;;;;5024299;28;20049;-75
2022/10/11 05:34:50;;;;;;;11.63;3.47;;;9.30;99.90;;;;;;5028650;28;20052;-76
2022/10/11 05:37:17;;;;;;;10.75;4.63;;;9.30;99.90;;;;;;5015318;28;20049;-76
2022/10/11 05:39:44;;;;;;;12.77;4.22;;;9.30;99.90;;;;;;5010263;28;20049;-76
2022/10/11 05:42:12;;;;;;;10.10;4.53;;;9.30;99.90;;;;;;5021186;28;20041;-76
2022/10/11 05:44:39;;;;;;;9.77;4.40;;;9.30;99.90;;;;;;5028626;28;20052;-76
2022/10/11 05:47:06;;;;;;;17.10;6.80;;;9.30;99.90;;;;;;5014243;28;20068;-76
2022/10/11 05:49:33;;;;;;;19.38;6.88;;;9.30;99.90;;;;;;5022811;28;20128;-76
2022/10/11 05:51:59;;;;;;;15.32;6.47;;;9.20;99.90;;;;;;5028982;28;20041;-76
2022/10/11 05:54:29;;;;;;;13.65;6.28;;;9.20;99.90;;;;;;5016669;28;20046;-75
2022/10/11 05:56:56;;;;;;;14.93;6.45;;;9.20;99.90;;;;;;5009350;28;20487;-75
2022/10/11 05:59:24;;;;;;;13.57;6.10;;;9.20;99.90;;;;;;5019502;28;20053;-76
2022/10/11 06:01:51;;;;;;;13.43;6.03;;;9.20;99.90;;;;;;5010101;28;20034;-75
2022/10/11 06:04:18;;;;;;;14.68;6.35;;;9.20;99.90;;;;;;5004856;28;20046;-75
2022/10/11 06:06:45;;;;;;;12.00;6.35;;;9.20;99.90;;;;;;5008554;28;20046;-75
2022/10/11 06:09:12;;;;;;;13.30;6.10;;;9.20;99.90;;;;;;5016754;28;20041;-75
2022/10/11 06:11:40;;;;;;;17.67;7.90;;;9.20;99.90;;;;;;5011632;28;20046;-75
2022/10/11 06:14:07;;;;;;;15.55;5.88;;;9.20;99.90;;;;;;5018131;28;20046;-77
2022/10/11 06:16:35;;;;;;;12.85;6.25;;;9.20;99.90;;;;;;5008693;28;20053;-77
2022/10/11 06:19:02;;;;;;;11.60;5.78;;;9.20;99.90;;;;;;5014103;28;20056;-77
2022/10/11 06:21:29;;;;;;;12.00;6.40;;;9.20;99.90;;;;;;5015581;28;20498;-77
2022/10/11 06:23:59;;;;;;;16.23;6.22;;;9.20;99.90;;;;;;5009420;28;20042;-77
2022/10/11 06:26:26;;;;;;;16.58;7.13;;;9.20;99.90;;;;;;5028465;28;20073;-77
2022/10/11 06:28:53;;;;;;;26.15;9.20;;;9.30;99.90;;;;;;5027979;28;20049;-77
2022/10/11 06:31:19;;;;;;;17.58;7.45;;;9.30;99.90;;;;;;5009235;28;20050;-78
2022/10/11 06:33:48;;;;;;;17.67;8.30;;;9.30;99.90;;;;;;5018598;28;20038;-77
2022/10/11 06:36:15;;;;;;;14.02;8.02;;;9.30;99.90;;;;;;5008949;28;20057;-78
2022/10/11 06:38:43;;;;;;;20.17;7.80;;;9.30;99.90;;;;;;5024107;28;20120;-77
2022/10/11 06:41:11;;;;;;;20.63;8.35;;;9.40;99.90;;;;;;5045707;22;20052;-87
2022/10/11 06:43:38;;;;;;;20.35;9.43;;;9.40;99.90;;;;;;5034362;28;20041;-84
2022/10/11 06:46:05;;;;;;;26.08;8.88;;;9.40;99.90;;;;;;5024928;28;20045;-84
2022/10/11 06:48:32;;;;;;;21.67;9.35;;;9.40;99.90;;;;;;5048459;28;20045;-83
2022/10/11 06:51:00;;;;;;;21.02;9.73;;;9.40;99.90;;;;;;5035421;28;20042;-83
2022/10/11 06:53:28;;;;;;;31.17;15.73;;;9.50;99.90;;;;;;5011579;28;20084;-84
2022/10/11 06:56:00;;;;;;;30.25;14.30;;;9.50;99.90;;;;;;5018304;28;20441;-83
2022/10/11 06:58:28;;;;;;;28.42;12.43;;;9.50;99.90;;;;;;5029384;28;20136;-85
2022/10/11 07:00:55;;;;;;;24.70;10.93;;;9.60;99.90;;;;;;5030865;28;20492;-84
2022/10/11 07:03:22;;;;;;;24.23;10.20;;;9.60;99.90;;;;;;5016283;28;20065;-86
2022/10/11 07:05:49;;;;;;;26.88;10.48;;;9.70;99.90;;;;;;5015760;28;20052;-83
2022/10/11 07:08:17;;;;;;;20.50;9.75;;;9.70;99.90;;;;;;5028463;28;20116;-82
2022/10/11 07:10:44;;;;;;;25.13;11.05;;;9.70;99.90;;;;;;5027494;28;20049;-83
2022/10/11 07:13:11;;;;;;;25.90;10.68;;;9.80;99.90;;;;;;5009744;28;20060;-82
2022/10/11 07:15:40;;;;;;;27.50;11.85;;;9.80;99.90;;;;;;5010740;28;20051;-82
2022/10/11 07:18:06;;;;;;;24.83;12.27;;;9.90;99.90;;;;;;5017540;28;20049;-83
2022/10/11 07:20:33;;;;;;;25.35;11.70;;;9.90;99.90;;;;;;5013957;28;20895;-82
2022/10/11 07:23:00;;;;;;;23.33;11.23;;;9.90;99.90;;;;;;5011524;28;20052;-82
2022/10/11 07:25:29;;;;;;;26.55;11.77;;;10.00;99.90;;;;;;5006977;28;20042;-82
2022/10/11 07:27:56;;;;;;;26.55;11.88;;;10.10;99.90;;;;;;5020136;28;20040;-82
2022/10/11 07:30:23;;;;;;;25.50;12.32;;;10.10;99.90;;;;;;5006038;28;20117;-83
2022/10/11 07:32:50;;;;;;;31.63;13.38;;;10.20;99.90;;;;;;5044015;28;20050;-83
2022/10/11 07:35:17;;;;;;;31.48;14.93;;;10.20;99.90;;;;;;5020712;28;20136;-79
2022/10/11 07:37:44;;;;;;;25.88;12.23;;;10.30;99.90;;;;;;5026478;28;20041;-82
2022/10/11 07:40:11;;;;;;;29.90;12.57;;;10.30;99.90;;;;;;5006434;28;20124;-82
2022/10/11 07:42:39;;;;;;;29.13;11.93;;;10.40;99.90;;;;;;5020421;28;20037;-80
2022/10/11 07:45:07;;;;;;;30.35;12.60;;;10.50;99.90;;;;;;5039364;28;20112;-82
2022/10/11 07:47:34;;;;;;;20.20;11.68;;;10.50;99.90;;;;;;5021397;28;20087;-82
2022/10/11 07:50:01;;;;;;;32.38;12.82;;;10.60;99.90;;;;;;5014518;28;20483;-81
2022/10/11 07:52:28;;;;;;;30.40;11.93;;;10.60;99.90;;;;;;5012800;28;20513;-82
2022/10/11 07:54:54;;;;;;;29.20;13.68;;;10.70;99.90;;;;;;5005286;28;20042;-82
2022/10/11 07:57:22;;;;;;;30.48;13.30;;;10.70;99.90;;;;;;5024839;28;20049;-82
2022/10/11 07:59:50;;;;;;;30.15;12.57;;;10.80;99.90;;;;;;5002885;28;20503;-82
2022/10/11 08:02:17;;;;;;;30.13;12.40;;;10.80;99.90;;;;;;5041491;28;20073;-83
2022/10/11 08:04:44;;;;;;;29.63;12.10;;;10.90;99.90;;;;;;5009603;28;20060;-82
2022/10/11 08:07:11;;;;;;;25.65;10.85;;;11.00;99.90;;;;;;5024028;28;20398;-82
2022/10/11 08:09:38;;;;;;;27.63;10.75;;;11.00;99.90;;;;;;5022759;28;20669;-82
2022/10/11 08:12:05;;;;;;;22.95;11.43;;;11.10;99.90;;;;;;5010801;28;20044;-82
2022/10/11 08:14:32;;;;;;;26.05;10.75;;;11.20;99.90;;;;;;5024506;28;20046;-82
2022/10/11 08:17:01;;;;;;;21.25;9.68;;;11.20;99.90;;;;;;5020033;28;20044;-82
2022/10/11 08:19:28;;;;;;;19.80;9.65;;;11.30;99.90;;;;;;5016776;28;20091;-82
2022/10/11 08:21:55;;;;;;;26.15;10.27;;;11.30;99.90;;;;;;5018986;28;20061;-82
2022/10/11 08:24:23;;;;;;;31.65;10.90;;;11.40;99.90;;;;;;5016344;28;20041;-83
2022/10/11 08:26:50;;;;;;;20.98;10.27;;;11.50;99.90;;;;;;5021775;28;20041;-82
2022/10/11 08:29:17;;;;;;;22.13;10.02;;;11.60;99.90;;;;;;5025832;28;20051;-83
2022/10/11 08:31:43;;;;;;;22.95;10.05;;;11.60;99.90;;;;;;5020268;28;20041;-83
2022/10/11 08:34:12;;;;;;;21.83;10.00;;;11.70;99.90;;;;;;5018045;28;20051;-90
2022/10/11 08:36:39;;;;;;;23.15;9.98;;;11.70;99.90;;;;;;5012235;28;20091;-83
2022/10/11 08:39:06;;;;;;;21.23;10.70;;;11.80;99.90;;;;;;5026108;28;20064;-83
2022/10/11 08:41:39;;;;;;;31.95;11.95;;;11.90;99.90;;;;;;5004064;28;20476;-83
2022/10/11 08:44:34;;;;;;;26.20;11.55;;;11.90;99.90;;;;;;5012013;28;20052;-84
2022/10/11 08:47:04;;;;;;;28.45;12.00;;;12.00;99.90;;;;;;5016269;28;20038;-83
2022/10/11 08:49:33;;;;;;;22.53;10.77;;;12.10;99.90;;;;;;5008831;28;20045;-83
2022/10/11 08:52:04;;;;;;;29.42;11.45;;;12.10;99.90;;;;;;5012240;28;20311;-83
2022/10/11 08:54:38;;;;;;;30.88;11.32;;;12.20;99.90;;;;;;5005772;28;20125;-83
2022/10/11 08:57:06;;;;;;;28.40;10.85;;;12.20;99.90;;;;;;5014574;28;20509;-84
2022/10/11 08:59:38;;;;;;;25.10;9.98;;;12.30;99.90;;;;;;5018215;28;20037;-84
2022/10/11 09:02:17;;;;;;;32.78;12.20;;;12.40;99.90;;;;;;5018324;28;20061;-84
2022/10/11 09:04:45;;;;;;;25.35;9.50;;;12.40;99.90;;;;;;5012651;28;20034;-83
2022/10/11 09:07:21;;;;;;;24.08;8.27;;;12.50;99.90;;;;;;5015683;28;20107;-83
2022/10/11 09:09:58;;;;;;;30.65;9.02;;;12.50;99.90;;;;;;5006684;28;20119;-83
2022/10/11 09:12:32;;;;;;;23.92;8.27;;;12.50;99.90;;;;;;5001400;28;20054;-83
2022/10/11 09:15:10;;;;;;;21.58;8.02;;;12.60;99.90;;;;;;5018148;28;20039;-85
2022/10/11 09:17:47;;;;;;;17.70;7.20;;;12.60;99.90;;;;;;5006250;28;20038;-84
2022/10/11 09:20:31;;;;;;;20.77;7.45;;;12.70;99.90;;;;;;5009026;28;20054;-84
2022/10/11 09:23:02;;;;;;;22.90;6.00;;;12.70;99.90;;;;;;5025696;28;20043;-84
2022/10/11 09:25:32;;;;;;;16.55;6.60;;;12.80;99.90;;;;;;5009798;28;20060;-83
2022/10/11 09:28:05;;;;;;;20.83;6.25;;;12.80;99.90;;;;;;5016073;28;20046;-83
2022/10/11 09:30:33;;;;;;;19.63;6.32;;;12.90;99.90;;;;;;5018057;28;20502;-83
2022/10/11 09:33:09;;;;;;;15.98;6.30;;;12.90;99.90;;;;;;5028017;28;20041;-84
2022/10/11 09:35:39;;;;;;;26.73;6.97;;;13.00;99.90;;;;;;5012181;28;20042;-83
2022/10/11 09:38:14;;;;;;;18.60;5.33;;;13.00;99.90;;;;;;5020196;28;20072;-81
2022/10/11 09:40:50;;;;;;;14.57;4.82;;;13.00;99.90;;;;;;5007290;28;20056;-84
2022/10/11 09:43:17;;;;;;;21.60;4.55;;;13.10;99.90;;;;;;4998389;28;20049;-84
2022/10/11 09:45:45;;;;;;;18.70;4.95;;;13.10;99.90;;;;;;5019397;28;20037;-83
2022/10/11 09:48:18;;;;;;;18.50;4.80;;;13.20;99.90;;;;;;5019971;28;20057;-84
2022/10/11 09:50:46;;;;;;;22.55;5.18;;;13.20;99.90;;;;;;5019575;28;20056;-83
2022/10/11 09:53:13;;;;;;;16.13;4.45;;;13.20;99.90;;;;;;5007583;28;20038;-84
2022/10/11 09:55:44;;;;;;;20.00;5.63;;;13.30;99.90;;;;;;5008205;28;20038;-83
2022/10/11 09:58:27;;;;;;;17.25;5.22;;;13.30;99.90;;;;;;5013528;28;20050;-84
2022/10/11 10:00:59;;;;;;;20.13;5.80;;;13.40;99.90;;;;;;5046123;28;20124;-82
2022/10/11 10:03:30;;;;;;;17.70;4.38;;;13.40;99.90;;;;;;5006969;28;20046;-83
2022/10/11 10:09:21;;;;;;;18.45;4.65;;;13.50;99.90;;;;;;4989430;28;19926;-81
2022/10/11 10:11:48;;;;;;;16.92;3.65;;;13.60;99.90;;;;;;4989023;28;20061;-84
2022/10/11 10:14:23;;;;;;;21.73;4.10;;;13.60;99.90;;;;;;4989927;28;20050;-83
2022/10/11 10:16:59;;;;;;;19.67;3.53;;;13.60;99.90;;;;;;5021543;28;20052;-83
2022/10/11 10:19:26;;;;;;;13.63;3.75;;;13.70;99.90;;;;;;5032430;28;20058;-84
2022/10/11 10:21:55;;;;;;;15.98;3.70;;;13.70;99.90;;;;;;5032506;28;20050;-83
2022/10/11 10:24:30;;;;;;;19.35;3.50;;;13.70;99.90;;;;;;5030616;28;20521;-84
2022/10/11 10:27:15;;;;;;;16.80;3.50;;;13.70;99.90;;;;;;5021594;28;20056;-83
2022/10/11 10:29:43;;;;;;;14.95;3.20;;;13.70;99.90;;;;;;5012322;28;20169;-83
2022/10/11 10:32:12;;;;;;;16.27;3.30;;;13.70;99.90;;;;;;5012750;28;20049;-81
2022/10/11 10:34:44;;;;;;;13.38;3.33;;;13.70;99.90;;;;;;5010503;28;20384;-81
2022/10/11 10:37:23;;;;;;;12.68;2.92;;;13.70;99.90;;;;;;5025205;28;20163;-81
2022/10/11 10:39:53;;;;;;;13.30;3.15;;;13.70;99.90;;;;;;5032047;28;20490;-82
2022/10/11 10:42:20;;;;;;;17.08;3.75;;;13.70;99.90;;;;;;5032241;28;20782;-82
2022/10/11 10:44:55;;;;;;;10.65;2.75;;;13.70;99.90;;;;;;5023189;28;20136;-91
2022/10/11 10:47:47;;;;;;;15.13;3.40;;;13.70;99.90;;;;;;5018015;28;20783;-84
2022/10/11 10:50:18;;;;;;;17.30;3.88;;;13.70;99.90;;;;;;5029336;28;20061;-80
2022/10/11 10:53:02;;;;;;;11.23;3.53;;;13.80;99.90;;;;;;5039779;28;20044;-84
2022/10/11 10:55:35;;;;;;;14.73;3.17;;;13.80;99.90;;;;;;5030906;28;20049;-84
2022/10/11 10:58:08;;;;;;;13.30;3.25;;;13.80;99.90;;;;;;5046572;28;20033;-84
2022/10/11 11:00:40;;;;;;;11.52;2.90;;;13.90;99.90;;;;;;5039936;28;20441;-83
2022/10/11 11:03:14;;;;;;;13.07;2.92;;;13.90;99.90;;;;;;5033725;28;20585;-83
2022/10/11 11:05:47;;;;;;;14.40;4.00;;;13.90;99.90;;;;;;5019374;28;20506;-84
2022/10/11 11:08:24;;;;;;;16.00;3.05;;;13.90;99.90;;;;;;5032535;28;20053;-84
2022/10/11 11:10:55;;;;;;;12.30;2.67;;;14.00;99.90;;;;;;5033072;28;20045;-84
2022/10/11 11:13:27;;;;;;;19.27;3.65;;;14.00;99.90;;;;;;5031935;28;20053;-84
2022/10/11 11:16:01;;;;;;;12.65;2.60;;;14.10;99.90;;;;;;5022884;28;20054;-84
2022/10/11 11:18:29;;;;;;;15.43;3.58;;;14.10;99.90;;;;;;5013278;28;20056;-84
2022/10/11 11:21:08;;;;;;;15.82;3.47;;;14.10;99.90;;;;;;4994191;28;20054;-85
2022/10/11 11:23:42;;;;;;;17.10;4.60;;;14.10;99.90;;;;;;5029563;28;20041;-84
2022/10/11 11:26:15;;;;;;;14.02;3.75;;;14.20;99.90;;;;;;5025736;28;20049;-84
2022/10/11 11:28:49;;;;;;;12.73;3.95;;;14.20;99.90;;;;;;5019062;28;20056;-82
2022/10/11 11:31:31;;;;;;;13.95;3.20;;;14.20;99.90;;;;;;4991886;28;20061;-83
2022/10/11 11:34:03;;;;;;;14.00;3.47;;;14.20;99.90;;;;;;4991405;28;20042;-83
2022/10/11 11:36:38;;;;;;;14.35;3.72;;;14.20;99.70;;;;;;5014694;28;20128;-86
2022/10/11 11:39:10;;;;;;;12.38;3.42;;;14.20;99.60;;;;;;5010768;28;20052;-85
2022/10/11 11:41:40;;;;;;;14.82;3.70;;;14.30;99.90;;;;;;5011191;28;20140;-85
2022/10/11 11:44:12;;;;;;;15.75;3.75;;;14.30;99.90;;;;;;4991908;28;20089;-85
2022/10/11 11:46:42;;;;;;;15.05;3.95;;;14.30;99.40;;;;;;5013920;28;20045;-85
2022/10/11 11:49:15;;;;;;;13.80;3.75;;;14.30;99.80;;;;;;4991802;28;20050;-85
2022/10/11 11:51:45;;;;;;;13.35;3.53;;;14.30;99.00;;;;;;4999274;28;20037;-85
2022/10/11 11:54:22;;;;;;;16.25;3.33;;;14.30;99.00;;;;;;5030747;28;20045;-86
2022/10/11 11:56:54;;;;;;;18.60;4.13;;;14.40;99.10;;;;;;5022295;28;20045;-86
2022/10/11 11:59:24;;;;;;;14.82;3.70;;;14.40;99.30;;;;;;5010965;28;20046;-84
2022/10/11 12:01:57;;;;;;;15.10;3.92;;;14.40;99.10;;;;;;5014747;28;20049;-86
2022/10/11 12:04:28;;;;;;;9.63;3.13;;;14.40;97.70;;;;;;5017696;28;20050;-85
2022/10/11 12:07:02;;;;;;;17.60;3.30;;;14.40;97.10;;;;;;5021371;28;20038;-86
2022/10/11 12:09:32;;;;;;;12.15;3.70;;;14.40;97.90;;;;;;5021275;28;20042;-85
2022/10/11 12:12:01;;;;;;;16.10;3.92;;;14.40;98.20;;;;;;5010533;28;20046;-85
2022/10/11 12:14:37;;;;;;;11.45;3.47;;;14.40;98.20;;;;;;5013175;28;20041;-85
2022/10/11 12:17:17;;;;;;;19.38;4.47;;;14.40;96.90;;;;;;5025124;28;20045;-84
2022/10/11 12:20:02;;;;;;;14.43;3.60;;;14.50;97.30;;;;;;5029716;28;20194;-84
2022/10/11 12:22:58;;;;;;;18.95;3.10;;;14.50;97.10;;;;;;5028380;28;20107;-85
2022/10/11 12:25:43;;;;;;;10.93;2.63;;;14.50;97.50;;;;;;5024672;28;20129;-85
2022/10/11 12:28:56;;;;;;;10.80;2.80;;;14.50;97.00;;;;;;5024908;28;20191;-86
2022/10/11 12:31:25;;;;;;;18.88;4.25;;;14.60;96.90;;;;;;4968732;28;20068;-85
2022/10/11 12:34:03;;;;;;;18.08;3.78;;;14.60;95.90;;;;;;4997949;28;20049;-85
2022/10/11 12:36:38;;;;;;;10.77;2.75;;;14.60;95.80;;;;;;5019848;28;20498;-85
2022/10/11 12:39:40;;;;;;;11.63;3.33;;;14.60;95.70;;;;;;5028979;28;20048;-84
2022/10/11 12:42:24;;;;;;;11.68;2.72;;;14.60;95.60;;;;;;5043884;22;20056;-78
2022/10/11 12:45:28;;;;;;;17.27;2.72;;;14.60;95.70;;;;;;5009214;28;20042;-77
2022/10/11 12:48:06;;;;;;;9.93;2.95;;;14.70;96.20;;;;;;5027758;28;20046;-79
2022/10/11 12:50:41;;;;;;;14.73;2.72;;;14.70;95.40;;;;;;5029493;28;20049;-78
2022/10/11 12:53:16;;;;;;;11.23;3.25;;;14.70;96.00;;;;;;5021786;28;20054;-78
2022/10/11 12:55:50;;;;;;;18.25;2.95;;;14.70;95.80;;;;;;5016631;28;20124;-78
2022/10/11 12:58:27;;;;;;;8.68;2.50;;;14.70;96.20;;;;;;5024030;28;20376;-78